createdAt,value
2023-05-25T00:01:16.482Z,100.00
2023-05-25T00:03:44.215Z,99.86
2023-05-25T00:06:11.470Z,100.00
2023-05-25T00:08:41.196Z,99.85
2023-05-25T00:11:07.941Z,100.00
2023-05-25T00:13:34.844Z,100.00
2023-05-25T00:16:01.538Z,100.00
2023-05-25T00:18:28.236Z,100.00
2023-05-25T00:20:55.036Z,100.00
2023-05-25T00:23:21.854Z,100.00
2023-05-25T00:25:48.504Z,99.55
2023-05-25T00:28:15.235Z,98.73
2023-05-25T00:30:41.967Z,98.66
2023-05-25T00:33:10.962Z,98.89
2023-05-25T00:35:37.632Z,99.24
2023-05-25T00:38:04.370Z,99.08
2023-05-25T00:40:31.312Z,98.90
2023-05-25T00:42:59.746Z,99.74
2023-05-25T00:45:26.592Z,100.00
2023-05-25T00:47:53.548Z,100.00
2023-05-25T00:50:23.653Z,100.00
2023-05-25T00:52:50.624Z,100.00
2023-05-25T00:55:19.809Z,100.00
2023-05-25T00:57:48.864Z,100.00
2023-05-25T01:00:16.260Z,100.00
2023-05-25T01:02:44.166Z,100.00
2023-05-25T01:05:12.610Z,100.00
2023-05-25T01:07:39.852Z,100.00
2023-05-25T01:10:07.380Z,100.00
2023-05-25T01:12:37.991Z,100.00
2023-05-25T01:15:05.772Z,100.00
2023-05-25T01:17:32.596Z,100.00
2023-05-25T01:20:09.679Z,100.00
2023-05-25T01:22:42.091Z,100.00
2023-05-25T01:25:25.540Z,100.00
2023-05-25T01:27:57.113Z,100.00
2023-05-25T01:30:26.310Z,100.00
2023-05-25T01:32:54.310Z,100.00
2023-05-25T01:35:22.135Z,100.00
2023-05-25T01:37:50.360Z,100.00
2023-05-25T01:40:17.112Z,100.00
2023-05-25T01:42:43.995Z,100.00
2023-05-25T01:45:12.080Z,100.00
2023-05-25T01:48:07.167Z,100.00
2023-05-25T01:51:13.879Z,99.29
2023-05-25T01:53:43.770Z,99.26
2023-05-25T01:56:11.883Z,99.21
2023-05-25T01:58:41.251Z,99.93
2023-05-25T02:01:12.741Z,100.00
2023-05-25T02:03:41.562Z,99.63
2023-05-25T02:06:08.946Z,100.00
2023-05-25T02:08:36.104Z,99.97
2023-05-25T02:11:03.581Z,100.00
2023-05-25T02:13:30.344Z,100.00
2023-05-25T02:15:57.108Z,100.00
2023-05-25T02:18:23.993Z,100.00
2023-05-25T02:20:50.685Z,100.00
2023-05-25T02:23:19.224Z,100.00
2023-05-25T02:25:46.736Z,100.00
2023-05-25T02:28:14.621Z,100.00
2023-05-25T02:30:41.320Z,100.00
2023-05-25T02:33:08.062Z,100.00
2023-05-25T02:35:34.865Z,100.00
2023-05-25T02:38:02.084Z,100.00
2023-05-25T02:40:28.762Z,100.00
2023-05-25T02:42:55.669Z,100.00
2023-05-25T02:45:22.511Z,100.00
2023-05-25T02:47:49.247Z,100.00
2023-05-25T02:50:16.095Z,100.00
2023-05-25T02:52:42.993Z,100.00
2023-05-25T02:55:19.047Z,100.00
2023-05-25T02:57:46.097Z,100.00
2023-05-25T03:00:13.639Z,100.00
2023-05-25T03:02:40.362Z,100.00
2023-05-25T03:05:07.827Z,100.00
2023-05-25T03:07:34.614Z,100.00
2023-05-25T03:10:01.525Z,100.00
2023-05-25T03:12:28.271Z,100.00
2023-05-25T03:14:54.922Z,100.00
2023-05-25T03:17:21.619Z,100.00
2023-05-25T03:19:48.528Z,100.00
2023-05-25T03:22:15.294Z,100.00
2023-05-25T03:24:42.044Z,100.00
2023-05-25T03:27:09.231Z,100.00
2023-05-25T03:29:36.048Z,100.00
2023-05-25T03:32:02.897Z,100.00
2023-05-25T03:34:30.060Z,100.00
2023-05-25T03:36:56.906Z,100.00
2023-05-25T03:39:23.606Z,100.00
2023-05-25T03:41:51.430Z,100.00
2023-05-25T03:44:18.270Z,100.00
2023-05-25T03:46:45.342Z,100.00
2023-05-25T03:49:14.412Z,100.00
2023-05-25T03:51:41.892Z,100.00
2023-05-25T03:54:08.665Z,100.00
2023-05-25T03:56:35.416Z,100.00
2023-05-25T03:59:02.400Z,100.00
2023-05-25T04:01:30.362Z,100.00
2023-05-25T04:03:57.491Z,100.00
2023-05-25T04:06:25.788Z,100.00
2023-05-25T04:08:52.941Z,100.00
2023-05-25T04:11:20.284Z,100.00
2023-05-25T04:13:46.978Z,100.00
2023-05-25T04:16:13.969Z,100.00
2023-05-25T04:18:40.744Z,100.00
2023-05-25T04:21:07.520Z,100.00
2023-05-25T04:23:34.336Z,100.00
2023-05-25T04:26:01.623Z,100.00
2023-05-25T04:28:28.574Z,100.00
2023-05-25T04:30:58.324Z,100.00
2023-05-25T04:33:25.244Z,100.00
2023-05-25T04:35:51.980Z,100.00
2023-05-25T04:38:18.818Z,100.00
2023-05-25T04:40:47.757Z,100.00
2023-05-25T04:43:18.654Z,100.00
2023-05-25T04:45:46.304Z,100.00
2023-05-25T04:48:13.686Z,100.00
2023-05-25T04:50:40.498Z,100.00
2023-05-25T04:53:07.228Z,100.00
2023-05-25T04:55:33.953Z,100.00
2023-05-25T04:58:01.123Z,100.00
2023-05-25T05:00:28.504Z,100.00
2023-05-25T05:02:56.941Z,100.00
2023-05-25T05:05:23.718Z,100.00
2023-05-25T05:07:50.695Z,100.00
2023-05-25T05:10:19.346Z,100.00
2023-05-25T05:12:46.243Z,100.00
2023-05-25T05:15:12.952Z,100.00
2023-05-25T05:17:39.937Z,100.00
2023-05-25T05:20:08.058Z,100.00
2023-05-25T05:22:35.159Z,100.00
2023-05-25T05:25:02.376Z,100.00
2023-05-25T05:27:29.110Z,100.00
2023-05-25T05:29:55.908Z,100.00
2023-05-25T05:32:22.691Z,100.00
2023-05-25T05:34:49.550Z,100.00
2023-05-25T05:37:16.389Z,100.00
2023-05-25T05:39:43.279Z,100.00
2023-05-25T05:42:10.069Z,99.71
2023-05-25T05:44:39.120Z,99.03
2023-05-25T05:47:09.838Z,99.31
2023-05-25T05:49:38.588Z,99.30
2023-05-25T05:52:05.748Z,99.84
2023-05-25T05:54:33.097Z,100.00
2023-05-25T05:56:59.931Z,100.00
2023-05-25T05:59:27.055Z,99.92
2023-05-25T06:01:54.058Z,100.00
2023-05-25T06:04:20.877Z,100.00
2023-05-25T06:06:47.805Z,100.00
2023-05-25T06:09:14.717Z,100.00
2023-05-25T06:11:41.537Z,100.00
2023-05-25T06:14:08.285Z,100.00
2023-05-25T06:16:35.340Z,100.00
2023-05-25T06:19:02.124Z,100.00
2023-05-25T06:21:28.849Z,99.60
2023-05-25T06:23:57.977Z,99.49
2023-05-25T06:26:25.439Z,99.99
2023-05-25T06:28:52.281Z,99.18
2023-05-25T06:31:19.212Z,99.30
2023-05-25T06:33:46.248Z,98.86
2023-05-25T06:36:15.814Z,99.79
2023-05-25T06:38:42.886Z,99.27
2023-05-25T06:41:12.992Z,98.64
2023-05-25T06:43:39.949Z,98.15
2023-05-25T06:46:06.757Z,97.71
2023-05-25T06:48:33.456Z,98.33
2023-05-25T06:51:00.459Z,98.79
2023-05-25T06:53:27.200Z,98.80
2023-05-25T06:55:53.960Z,98.46
2023-05-25T06:58:20.773Z,99.59
2023-05-25T07:00:47.524Z,99.74
2023-05-25T07:03:14.292Z,98.67
2023-05-25T07:05:41.746Z,98.86
2023-05-25T07:08:08.842Z,98.56
2023-05-25T07:10:35.687Z,97.74
2023-05-25T07:13:02.366Z,97.04
2023-05-25T07:15:29.440Z,97.27
2023-05-25T07:17:57.532Z,94.35
2023-05-25T07:20:24.647Z,94.01
2023-05-25T07:22:51.440Z,92.70
2023-05-25T07:25:18.333Z,92.91
2023-05-25T07:27:49.326Z,93.76
2023-05-25T07:30:16.672Z,93.11
2023-05-25T07:32:43.604Z,94.86
2023-05-25T07:35:10.331Z,92.89
2023-05-25T07:37:37.092Z,91.46
2023-05-25T07:40:04.660Z,92.42
2023-05-25T07:42:34.531Z,89.40
2023-05-25T07:45:02.231Z,88.67
2023-05-25T07:47:29.219Z,89.01
2023-05-25T07:49:56.392Z,86.30
2023-05-25T07:52:23.330Z,86.79
2023-05-25T07:54:50.329Z,87.16
2023-05-25T07:57:17.008Z,83.56
2023-05-25T07:59:45.152Z,84.05
2023-05-25T08:02:11.978Z,85.02
2023-05-25T08:04:38.816Z,84.77
2023-05-25T08:07:05.622Z,86.45
2023-05-25T08:09:32.371Z,85.12
2023-05-25T08:12:21.366Z,85.16
2023-05-25T08:14:45.794Z,82.12
2023-05-25T08:17:12.750Z,84.22
2023-05-25T08:19:39.525Z,82.32
2023-05-25T08:22:06.511Z,80.63
2023-05-25T08:24:33.182Z,82.36
2023-05-25T08:27:01.499Z,81.37
2023-05-25T08:29:28.404Z,81.70
2023-05-25T08:31:55.069Z,81.91
2023-05-25T08:34:21.874Z,79.04
2023-05-25T08:36:49.133Z,78.61
2023-05-25T08:39:16.931Z,78.40
2023-05-25T08:41:45.128Z,78.91
2023-05-25T08:44:12.260Z,77.17
2023-05-25T08:46:39.056Z,77.35
2023-05-25T08:49:11.570Z,77.40
2023-05-25T08:52:10.369Z,79.15
2023-05-25T08:54:37.704Z,76.27
2023-05-25T08:57:17.566Z,76.17
2023-05-25T08:59:52.003Z,75.27
2023-05-25T09:02:40.252Z,77.38
2023-05-25T09:05:09.018Z,73.82
2023-05-25T09:07:36.273Z,72.62
2023-05-25T09:10:05.540Z,70.93
2023-05-25T09:12:32.640Z,72.54
2023-05-25T09:15:00.030Z,70.89
2023-05-25T09:17:27.872Z,69.94
2023-05-25T09:19:55.107Z,70.03
2023-05-25T09:22:22.474Z,72.49
2023-05-25T09:24:49.440Z,74.34
2023-05-25T09:27:20.946Z,73.71
2023-05-25T09:29:48.999Z,73.47
2023-05-25T09:32:17.140Z,70.31
2023-05-25T09:34:44.647Z,72.17
2023-05-25T09:37:14.207Z,70.26
2023-05-25T09:39:42.615Z,69.01
2023-05-25T09:42:10.704Z,69.62
2023-05-25T09:44:37.828Z,68.15
2023-05-25T09:47:06.754Z,67.11
2023-05-25T09:49:33.590Z,68.51
2023-05-25T09:52:00.830Z,65.72
2023-05-25T09:54:27.594Z,66.49
2023-05-25T09:56:54.796Z,64.88
2023-05-25T09:59:23.361Z,65.77
2023-05-25T10:01:53.930Z,64.44
2023-05-25T10:04:21.138Z,66.23
2023-05-25T10:06:50.204Z,64.00
2023-05-25T10:09:19.183Z,65.60
2023-05-25T10:11:46.316Z,61.52
2023-05-25T10:14:16.263Z,64.17
2023-05-25T10:16:47.620Z,61.26
2023-05-25T10:19:18.879Z,60.73
2023-05-25T10:21:57.845Z,64.50
2023-05-25T10:24:35.437Z,62.97
2023-05-25T10:27:14.505Z,65.22
2023-05-25T10:29:48.394Z,63.15
2023-05-25T10:32:16.699Z,62.72
2023-05-25T10:34:43.537Z,62.90
2023-05-25T10:37:11.517Z,61.12
2023-05-25T10:39:39.117Z,61.62
2023-05-25T10:42:07.124Z,61.02
2023-05-25T10:44:34.026Z,63.57
2023-05-25T10:47:02.127Z,59.38
2023-05-25T10:49:33.908Z,60.14
2023-05-25T10:52:02.647Z,61.34
2023-05-25T10:54:31.516Z,60.62
2023-05-25T10:57:19.333Z,63.44
2023-05-25T10:59:50.964Z,62.19
2023-05-25T11:02:23.672Z,61.67
2023-05-25T11:04:50.933Z,62.20
2023-05-25T11:07:19.685Z,60.59
2023-05-25T11:09:58.585Z,61.33
2023-05-25T11:12:25.394Z,63.17
2023-05-25T11:15:17.258Z,65.25
2023-05-25T11:18:00.431Z,63.59
2023-05-25T11:20:29.266Z,62.56
2023-05-25T11:22:57.753Z,64.13
2023-05-25T11:25:37.716Z,64.59
2023-05-25T11:28:09.203Z,62.22
2023-05-25T11:30:36.952Z,61.61
2023-05-25T11:33:04.667Z,62.86
2023-05-25T11:35:34.001Z,61.03
2023-05-25T11:38:00.846Z,62.71
2023-05-25T11:40:31.473Z,61.00
2023-05-25T11:43:00.961Z,61.64
2023-05-25T11:45:33.602Z,60.35
2023-05-25T11:48:00.481Z,62.98
2023-05-25T11:50:28.491Z,61.21
2023-05-25T11:52:55.730Z,59.39
2023-05-25T11:55:22.720Z,58.87
2023-05-25T11:57:56.020Z,59.92
2023-05-25T12:00:27.455Z,59.08
2023-05-25T12:02:55.031Z,60.12
2023-05-25T12:05:23.552Z,60.14
2023-05-25T12:07:50.566Z,59.09
2023-05-25T12:10:17.401Z,59.31
2023-05-25T12:12:49.210Z,59.88
2023-05-25T12:15:20.675Z,57.29
2023-05-25T12:17:48.265Z,58.78
2023-05-25T12:20:17.187Z,57.74
2023-05-25T12:22:45.161Z,58.24
2023-05-25T12:25:13.328Z,60.51
2023-05-25T12:27:40.500Z,59.87
2023-05-25T12:30:10.933Z,61.17
2023-05-25T12:33:04.462Z,61.94
2023-05-25T12:35:48.363Z,60.65
2023-05-25T12:38:17.770Z,58.70
2023-05-25T12:40:44.929Z,56.48
2023-05-25T12:43:13.781Z,59.00
2023-05-25T12:45:41.894Z,58.94
2023-05-25T12:48:08.639Z,57.07
2023-05-25T12:50:37.041Z,58.03
2023-05-25T12:53:04.752Z,58.16
2023-05-25T12:55:33.233Z,60.42
2023-05-25T12:58:02.424Z,59.50
2023-05-25T13:00:34.199Z,58.47
2023-05-25T13:03:01.251Z,57.96
2023-05-25T13:05:29.805Z,59.08
2023-05-25T13:07:57.323Z,56.35
2023-05-25T13:10:24.580Z,56.74
2023-05-25T13:12:52.327Z,56.99
2023-05-25T13:15:21.378Z,56.83
2023-05-25T13:17:51.912Z,57.92
2023-05-25T13:20:20.524Z,58.91
2023-05-25T13:22:49.378Z,59.65
2023-05-25T13:25:16.181Z,59.52
2023-05-25T13:27:45.298Z,58.05
2023-05-25T13:30:12.764Z,56.56
2023-05-25T13:32:40.207Z,57.16
2023-05-25T13:35:08.054Z,57.14
2023-05-25T13:37:34.763Z,55.05
2023-05-25T13:40:01.473Z,57.09
2023-05-25T13:42:28.441Z,55.64
2023-05-25T13:44:55.232Z,57.64
2023-05-25T13:47:22.059Z,55.52
2023-05-25T13:49:49.293Z,54.42
2023-05-25T13:52:16.000Z,54.94
2023-05-25T13:54:42.728Z,56.05
2023-05-25T13:57:09.550Z,56.41
2023-05-25T13:59:36.332Z,56.05
2023-05-25T14:02:03.406Z,55.28
2023-05-25T14:04:30.183Z,55.72
2023-05-25T14:06:57.379Z,53.80
2023-05-25T14:09:24.192Z,53.04
2023-05-25T14:11:53.594Z,54.03
2023-05-25T14:14:30.859Z,55.21
2023-05-25T14:16:59.230Z,54.88
2023-05-25T14:19:25.940Z,54.04
2023-05-25T14:22:08.110Z,53.45
2023-05-25T14:24:39.360Z,53.92
2023-05-25T14:27:07.453Z,54.73
2023-05-25T14:29:34.492Z,53.41
2023-05-25T14:32:01.767Z,54.85
2023-05-25T14:34:28.972Z,51.93
2023-05-25T14:36:56.172Z,52.40
2023-05-25T14:39:22.913Z,53.02
2023-05-25T14:41:49.664Z,53.30
2023-05-25T14:44:16.802Z,52.97
2023-05-25T14:46:43.668Z,51.63
2023-05-25T14:49:10.484Z,51.87
2023-05-25T14:51:38.284Z,51.57
2023-05-25T14:54:06.566Z,51.74
2023-05-25T14:56:33.609Z,52.96
2023-05-25T14:59:00.421Z,51.22
2023-05-25T15:01:29.597Z,51.21
2023-05-25T15:03:56.849Z,51.60
2023-05-25T15:06:23.856Z,52.75
2023-05-25T15:08:50.653Z,52.34
2023-05-25T15:11:18.355Z,52.06
2023-05-25T15:13:45.359Z,51.45
2023-05-25T15:16:12.994Z,52.23
2023-05-25T15:18:39.725Z,51.14
2023-05-25T15:21:06.571Z,51.33
2023-05-25T15:23:33.547Z,50.13
2023-05-25T15:26:07.922Z,50.45
2023-05-25T15:28:35.060Z,51.74
2023-05-25T15:31:03.202Z,51.58
2023-05-25T15:33:47.120Z,51.16
2023-05-25T15:36:16.847Z,51.55
2023-05-25T15:38:44.721Z,51.38
2023-05-25T15:41:15.190Z,50.52
2023-05-25T15:43:42.191Z,50.33
2023-05-25T15:46:09.070Z,52.05
2023-05-25T15:48:35.918Z,50.86
2023-05-25T15:51:03.433Z,51.78
2023-05-25T15:53:30.621Z,51.85
2023-05-25T15:55:57.484Z,51.96
2023-05-25T15:58:24.174Z,54.17
2023-05-25T16:00:50.864Z,53.90
2023-05-25T16:03:17.689Z,52.97
2023-05-25T16:05:44.697Z,54.41
2023-05-25T16:08:14.175Z,54.83
2023-05-25T16:10:40.980Z,53.23
2023-05-25T16:13:07.724Z,54.05
2023-05-25T16:15:34.447Z,54.26
2023-05-25T16:18:01.607Z,53.74
2023-05-25T16:20:28.387Z,52.58
2023-05-25T16:22:55.182Z,52.78
2023-05-25T16:25:21.917Z,52.94
2023-05-25T16:27:48.656Z,54.66
2023-05-25T16:30:15.700Z,54.80
2023-05-25T16:32:42.623Z,53.41
2023-05-25T16:35:09.710Z,55.41
2023-05-25T16:37:36.375Z,56.37
2023-05-25T16:40:03.373Z,56.89
2023-05-25T16:42:30.359Z,53.80
2023-05-25T16:44:57.216Z,55.71
2023-05-25T16:47:23.935Z,58.86
2023-05-25T16:49:50.739Z,56.67
2023-05-25T16:52:17.415Z,57.71
2023-05-25T16:54:44.334Z,59.70
2023-05-25T16:57:12.309Z,58.53
2023-05-25T16:59:39.539Z,59.74
2023-05-25T17:02:07.190Z,56.76
2023-05-25T17:04:34.083Z,59.02
2023-05-25T17:07:00.770Z,60.53
2023-05-25T17:09:27.541Z,60.24
2023-05-25T17:11:54.396Z,59.13
2023-05-25T17:14:21.129Z,61.05
2023-05-25T17:16:47.986Z,61.76
2023-05-25T17:19:15.283Z,59.96
2023-05-25T17:21:42.247Z,61.34
2023-05-25T17:24:09.084Z,60.93
2023-05-25T17:26:35.894Z,60.72
2023-05-25T17:29:02.795Z,61.25
2023-05-25T17:31:29.483Z,61.05
2023-05-25T17:33:56.515Z,62.21
2023-05-25T17:36:23.931Z,63.12
2023-05-25T17:38:51.012Z,62.74
2023-05-25T17:41:17.753Z,64.03
2023-05-25T17:43:44.442Z,64.59
2023-05-25T17:46:11.371Z,64.65
2023-05-25T17:48:38.284Z,63.88
2023-05-25T17:51:05.236Z,64.31
2023-05-25T17:53:31.991Z,65.85
2023-05-25T17:55:58.715Z,65.43
2023-05-25T17:58:25.422Z,64.04
2023-05-25T18:00:52.461Z,66.06
2023-05-25T18:03:19.414Z,65.82
2023-05-25T18:05:49.313Z,66.35
2023-05-25T18:08:15.988Z,66.55
2023-05-25T18:10:42.758Z,66.60
2023-05-25T18:13:09.739Z,65.72
2023-05-25T18:15:36.538Z,67.17
2023-05-25T18:18:05.930Z,66.65
2023-05-25T18:20:32.834Z,66.23
2023-05-25T18:22:59.736Z,66.92
2023-05-25T18:25:26.532Z,69.22
2023-05-25T18:27:53.390Z,69.51
2023-05-25T18:30:20.069Z,70.00
2023-05-25T18:32:46.867Z,70.81
2023-05-25T18:35:13.608Z,71.29
2023-05-25T18:37:40.364Z,69.93
2023-05-25T18:40:08.016Z,71.80
2023-05-25T18:42:35.180Z,71.27
2023-05-25T18:45:01.998Z,72.28
2023-05-25T18:47:28.740Z,72.84
2023-05-25T18:49:55.498Z,72.93
2023-05-25T18:52:22.649Z,73.60
2023-05-25T18:54:50.164Z,73.42
2023-05-25T18:57:17.331Z,73.22
2023-05-25T18:59:44.194Z,73.75
2023-05-25T19:02:11.235Z,73.79
2023-05-25T19:04:38.064Z,75.24
2023-05-25T19:07:05.404Z,74.91
2023-05-25T19:09:32.325Z,75.23
2023-05-25T19:11:59.047Z,76.38
2023-05-25T19:14:25.799Z,75.38
2023-05-25T19:16:52.572Z,76.61
2023-05-25T19:19:19.372Z,76.12
2023-05-25T19:21:46.164Z,76.87
2023-05-25T19:24:13.183Z,76.59
2023-05-25T19:26:39.933Z,75.56
2023-05-25T19:29:06.695Z,75.14
2023-05-25T19:31:33.488Z,76.05
2023-05-25T19:34:00.252Z,76.39
2023-05-25T19:36:27.524Z,77.05
2023-05-25T19:38:54.217Z,78.28
2023-05-25T19:41:21.482Z,78.48
2023-05-25T19:43:48.445Z,79.54
2023-05-25T19:46:15.507Z,79.03
2023-05-25T19:48:42.762Z,80.79
2023-05-25T19:51:09.735Z,80.58
2023-05-25T19:53:36.405Z,80.70
2023-05-25T19:56:03.938Z,79.60
2023-05-25T19:58:30.690Z,79.84
2023-05-25T20:00:57.516Z,81.85
2023-05-25T20:03:24.393Z,81.03
2023-05-25T20:05:51.110Z,80.88
2023-05-25T20:08:17.841Z,80.45
2023-05-25T20:10:45.424Z,80.86
2023-05-25T20:13:13.034Z,81.61
2023-05-25T20:15:39.868Z,81.76
2023-05-25T20:18:06.720Z,82.85
2023-05-25T20:20:33.733Z,83.11
2023-05-25T20:23:00.963Z,82.23
2023-05-25T20:25:28.675Z,83.29
2023-05-25T20:27:56.944Z,83.03
2023-05-25T20:30:23.734Z,83.69
2023-05-25T20:32:50.457Z,83.01
2023-05-25T20:35:17.514Z,81.86
2023-05-25T20:37:44.335Z,81.89
2023-05-25T20:40:11.479Z,83.49
2023-05-25T20:42:38.151Z,84.65
2023-05-25T20:45:05.311Z,83.79
2023-05-25T20:47:32.125Z,84.78
2023-05-25T20:49:58.934Z,83.99
2023-05-25T20:52:25.655Z,84.81
2023-05-25T20:54:52.375Z,83.36
2023-05-25T20:57:19.134Z,85.08
2023-05-25T20:59:46.521Z,86.38
2023-05-25T21:02:13.260Z,85.81
2023-05-25T21:04:40.005Z,85.09
2023-05-25T21:07:06.959Z,85.66
2023-05-25T21:09:33.632Z,84.42
2023-05-25T21:12:00.357Z,85.72
2023-05-25T21:14:27.434Z,86.30
2023-05-25T21:16:54.120Z,86.03
2023-05-25T21:19:20.829Z,85.75
2023-05-25T21:21:47.550Z,86.04
2023-05-25T21:24:14.349Z,85.89
2023-05-25T21:26:41.222Z,86.78
2023-05-25T21:29:08.090Z,87.25
2023-05-25T21:31:34.968Z,86.79
2023-05-25T21:34:02.065Z,87.19
2023-05-25T21:36:28.870Z,87.81
2023-05-25T21:38:55.773Z,87.05
2023-05-25T21:41:23.915Z,87.39
2023-05-25T21:43:51.053Z,86.74
2023-05-25T21:46:17.779Z,86.43
2023-05-25T21:48:44.485Z,87.65
2023-05-25T21:51:11.274Z,86.76
2023-05-25T21:53:38.251Z,87.16
2023-05-25T21:56:04.983Z,87.44
2023-05-25T21:58:31.677Z,87.03
2023-05-25T22:00:58.678Z,88.82
2023-05-25T22:03:25.436Z,90.37
2023-05-25T22:05:52.208Z,88.83
2023-05-25T22:08:19.072Z,89.62
2023-05-25T22:10:45.884Z,90.57
2023-05-25T22:13:12.716Z,90.43
2023-05-25T22:15:39.569Z,90.61
2023-05-25T22:18:06.508Z,91.14
2023-05-25T22:20:33.330Z,90.50
2023-05-25T22:23:00.287Z,91.96
2023-05-25T22:25:27.040Z,92.06
2023-05-25T22:27:53.735Z,92.29
2023-05-25T22:30:20.428Z,92.33
2023-05-25T22:32:47.650Z,90.28
2023-05-25T22:35:14.770Z,92.47
2023-05-25T22:37:41.563Z,92.50
2023-05-25T22:40:09.016Z,92.99
2023-05-25T22:42:35.824Z,93.32
2023-05-25T22:45:02.509Z,93.26
2023-05-25T22:47:29.304Z,94.40
2023-05-25T22:49:56.347Z,94.94
2023-05-25T22:52:23.094Z,93.79
2023-05-25T22:54:50.115Z,94.59
2023-05-25T22:57:16.888Z,94.85
2023-05-25T22:59:43.714Z,93.71
2023-05-25T23:02:10.416Z,93.31
2023-05-25T23:04:37.200Z,93.53
2023-05-25T23:07:04.016Z,93.32
2023-05-25T23:09:30.815Z,94.01
2023-05-25T23:11:57.794Z,94.24
2023-05-25T23:14:24.512Z,94.33
2023-05-25T23:16:51.420Z,94.21
2023-05-25T23:19:18.381Z,94.95
2023-05-25T23:21:45.036Z,95.51
2023-05-25T23:24:11.842Z,96.35
2023-05-25T23:26:38.608Z,96.18
2023-05-25T23:29:05.963Z,95.58
2023-05-25T23:31:32.972Z,95.86
2023-05-25T23:33:59.990Z,95.77
2023-05-25T23:36:26.672Z,96.05
2023-05-25T23:38:53.396Z,95.75
2023-05-25T23:41:20.207Z,96.16
2023-05-25T23:43:46.968Z,95.78
2023-05-25T23:46:16.536Z,96.00
2023-05-25T23:48:44.358Z,96.02
2023-05-25T23:51:11.327Z,95.71
2023-05-25T23:53:38.945Z,95.10
2023-05-25T23:56:05.857Z,94.89
2023-05-25T23:58:32.627Z,94.09
